Time;durP1;ratioP1;P1;durP2;ratioP2;P2;SDS_P1;SDS_P2;PMS_P1;PMS_P2;Temp;Humidity;BMP_temperature;BMP_pressure;BME280_temperature;BME280_humidity;BME280_pressure;Samples;Min_cycle;Max_cycle;Signal;HPM_P1;HPM_P2
2022/08/07 00:00:34;;;;;;;0.55;0.52;;;16.50;89.40;;;;;;6133428;23;20055;-82
2022/08/07 00:03:06;;;;;;;1.00;0.70;;;16.50;90.00;;;;;;6133468;23;20024;-81
2022/08/07 00:05:34;;;;;;;0.50;0.50;;;16.50;90.10;;;;;;6130372;23;20044;-82
2022/08/07 00:08:03;;;;;;;0.40;0.40;;;16.40;90.20;;;;;;6155576;23;20342;-81
2022/08/07 00:10:30;;;;;;;0.82;0.70;;;16.40;90.40;;;;;;6130066;23;20052;-82
2022/08/07 00:13:00;;;;;;;0.65;0.63;;;16.40;90.50;;;;;;6132144;23;20021;-83
2022/08/07 00:15:48;;;;;;;1.15;0.68;;;16.30;90.60;;;;;;6142314;23;20550;-82
2022/08/07 00:18:22;;;;;;;0.77;0.60;;;16.40;90.90;;;;;;6156119;23;20079;-83
2022/08/07 00:20:56;;;;;;;0.47;0.40;;;16.30;90.90;;;;;;6131956;23;20314;-81
2022/08/07 00:23:29;;;;;;;1.00;0.60;;;16.30;91.30;;;;;;6134710;23;20523;-81
2022/08/07 00:25:57;;;;;;;0.68;0.60;;;16.20;91.10;;;;;;6154518;23;20071;-81
2022/08/07 00:28:44;;;;;;;0.93;0.60;;;16.20;91.30;;;;;;6163213;23;20021;-82
2022/08/07 00:31:21;;;;;;;0.85;0.50;;;16.10;91.50;;;;;;6158181;23;20048;-83
2022/08/07 00:33:48;;;;;;;0.75;0.50;;;16.20;91.70;;;;;;6153329;23;20017;-82
2022/08/07 00:36:15;;;;;;;0.40;0.40;;;16.10;91.70;;;;;;6151723;23;20526;-82
2022/08/07 00:38:42;;;;;;;0.73;0.60;;;16.10;92.00;;;;;;6151909;23;20039;-81
2022/08/07 00:41:10;;;;;;;1.02;0.50;;;16.00;92.00;;;;;;6129971;23;20025;-83
2022/08/07 00:43:42;;;;;;;0.50;0.50;;;16.00;92.30;;;;;;6132524;23;20498;-81
2022/08/07 00:46:27;;;;;;;0.60;0.50;;;15.90;92.80;;;;;;6162531;23;20025;-83
2022/08/07 00:48:54;;;;;;;0.40;0.40;;;15.80;93.00;;;;;;6153218;23;20387;-82
2022/08/07 00:51:21;;;;;;;0.63;0.45;;;15.70;93.00;;;;;;6130990;23;20063;-82
2022/08/07 00:53:53;;;;;;;0.43;0.43;;;15.80;93.10;;;;;;6132679;23;20415;-82
2022/08/07 00:56:22;;;;;;;0.50;0.40;;;15.80;93.30;;;;;;6130687;23;20387;-82
2022/08/07 00:58:56;;;;;;;0.75;0.60;;;15.70;93.50;;;;;;6134095;23;20024;-82
2022/08/07 01:01:22;;;;;;;0.77;0.50;;;15.70;93.60;;;;;;6153119;23;20467;-82
2022/08/07 01:03:53;;;;;;;0.55;0.50;;;15.60;93.90;;;;;;6153806;23;20092;-82
2022/08/07 01:06:28;;;;;;;0.30;0.30;;;15.60;94.00;;;;;;6136106;23;20029;-82
2022/08/07 01:08:56;;;;;;;0.50;0.50;;;15.60;94.20;;;;;;6134777;23;20070;-82
2022/08/07 01:11:28;;;;;;;0.70;0.60;;;15.50;94.20;;;;;;6135852;23;20027;-82
2022/08/07 01:14:14;;;;;;;0.50;0.50;;;15.50;94.50;;;;;;6145701;23;20024;-82
2022/08/07 01:16:43;;;;;;;0.50;0.50;;;15.50;94.80;;;;;;6133332;23;20021;-82
2022/08/07 01:19:14;;;;;;;0.80;0.57;;;15.50;94.70;;;;;;6159507;23;20083;-84
2022/08/07 01:21:45;;;;;;;0.63;0.63;;;15.40;94.60;;;;;;6159718;23;20023;-85
2022/08/07 01:24:13;;;;;;;0.40;0.40;;;15.40;94.70;;;;;;6157724;23;20055;-84
2022/08/07 01:26:44;;;;;;;0.70;0.52;;;15.30;95.10;;;;;;6159712;23;20570;-84
2022/08/07 01:29:18;;;;;;;0.82;0.50;;;15.40;95.00;;;;;;6137004;23;20016;-83
2022/08/07 01:39:44;;;;;;;0.38;0.38;;;15.20;95.40;;;;;;6232087;22;20020;-91
2022/08/07 01:42:13;;;;;;;0.60;0.47;;;15.20;95.60;;;;;;6191825;23;20027;-92
2022/08/07 01:45:00;;;;;;;1.13;0.57;;;15.10;95.70;;;;;;6205616;23;20027;-91
2022/08/07 01:47:28;;;;;;;0.40;0.40;;;15.20;95.90;;;;;;6171725;23;20030;-86
2022/08/07 01:50:15;;;;;;;0.68;0.43;;;15.10;95.70;;;;;;6185344;23;20055;-88
2022/08/07 01:52:56;;;;;;;0.25;0.25;;;15.10;95.80;;;;;;6174433;23;20023;-89
2022/08/07 01:55:35;;;;;;;0.38;0.35;;;15.10;96.00;;;;;;6193841;23;20099;-92
2022/08/07 01:58:06;;;;;;;0.40;0.32;;;15.10;96.30;;;;;;6196712;23;20020;-87
2022/08/07 02:01:00;;;;;;;0.63;0.60;;;15.10;96.40;;;;;;6177642;23;20051;-93
2022/08/07 02:04:10;;;;;;;0.43;0.43;;;15.00;96.40;;;;;;6197707;23;20055;-89
2022/08/07 02:06:37;;;;;;;0.20;0.20;;;15.00;96.50;;;;;;6195584;23;20444;-89
2022/08/07 02:09:06;;;;;;;0.45;0.40;;;15.00;96.30;;;;;;6200193;23;20016;-88
2022/08/07 02:11:38;;;;;;;0.60;0.47;;;15.00;96.30;;;;;;6201083;23;20020;-88
2022/08/07 02:14:27;;;;;;;0.98;0.50;;;14.90;96.60;;;;;;6189530;23;20115;-90
2022/08/07 02:17:02;;;;;;;0.73;0.60;;;15.00;96.90;;;;;;6198952;23;20030;-91
2022/08/07 02:19:29;;;;;;;0.50;0.50;;;14.90;96.70;;;;;;6169996;23;20447;-89
2022/08/07 02:22:18;;;;;;;0.40;0.40;;;14.90;97.10;;;;;;6222849;23;20076;-88
2022/08/07 02:24:47;;;;;;;0.50;0.50;;;14.80;97.00;;;;;;6170356;23;20138;-87
2022/08/07 02:27:16;;;;;;;0.47;0.40;;;14.80;97.20;;;;;;6170152;23;20016;-90
2022/08/07 02:29:43;;;;;;;0.63;0.50;;;14.80;97.90;;;;;;6171941;23;20074;-89
2022/08/07 02:32:20;;;;;;;0.30;0.30;;;14.80;97.60;;;;;;6198834;23;20289;-86
2022/08/07 02:34:48;;;;;;;0.55;0.50;;;14.70;97.50;;;;;;6195122;23;20039;-90
2022/08/07 02:37:17;;;;;;;0.40;0.40;;;14.60;98.10;;;;;;6172480;23;20072;-91
2022/08/07 02:39:44;;;;;;;0.40;0.40;;;14.60;97.90;;;;;;6191718;23;20333;-85
2022/08/07 02:42:31;;;;;;;0.30;0.30;;;14.60;98.30;;;;;;6175826;23;20047;-85
2022/08/07 02:44:59;;;;;;;0.32;0.32;;;14.60;98.20;;;;;;6187728;23;20024;-86
2022/08/07 02:47:46;;;;;;;0.70;0.50;;;14.50;98.10;;;;;;6196942;23;20017;-94
2022/08/07 02:50:15;;;;;;;0.63;0.40;;;14.50;98.20;;;;;;6190853;23;20027;-91
2022/08/07 02:53:06;;;;;;;0.38;0.38;;;14.50;98.60;;;;;;6167167;23;20034;-96
2022/08/07 02:55:37;;;;;;;0.47;0.38;;;14.40;98.70;;;;;;6196812;23;20019;-93
2022/08/07 02:58:24;;;;;;;0.40;0.40;;;14.40;99.00;;;;;;6191442;23;20074;-85
2022/08/07 03:00:55;;;;;;;0.32;0.32;;;14.40;98.90;;;;;;6165119;23;20111;-86
2022/08/07 03:03:22;;;;;;;0.70;0.68;;;14.30;99.00;;;;;;6190084;23;20081;-86
2022/08/07 03:05:55;;;;;;;0.70;0.70;;;14.30;99.60;;;;;;6167406;23;20175;-85
2022/08/07 03:08:22;;;;;;;0.50;0.50;;;14.20;99.50;;;;;;6165462;23;20035;-93
2022/08/07 03:10:55;;;;;;;0.43;0.43;;;14.20;99.60;;;;;;6167950;23;20021;-91
2022/08/07 03:13:22;;;;;;;0.82;0.47;;;14.10;99.90;;;;;;6189553;23;20043;-87
2022/08/07 03:15:51;;;;;;;0.52;0.50;;;14.20;99.90;;;;;;6163462;23;20143;-89
2022/08/07 03:18:24;;;;;;;0.40;0.40;;;14.20;99.80;;;;;;6177725;23;20020;-85
2022/08/07 03:21:03;;;;;;;0.28;0.28;;;14.10;99.90;;;;;;6201074;23;20089;-87
2022/08/07 03:23:34;;;;;;;0.50;0.40;;;14.10;99.90;;;;;;6168808;23;20027;-93
2022/08/07 03:26:23;;;;;;;0.50;0.50;;;14.00;99.90;;;;;;6197402;23;20105;-88
2022/08/07 03:28:50;;;;;;;0.40;0.40;;;13.90;99.90;;;;;;6189574;23;20020;-92
2022/08/07 03:31:18;;;;;;;0.40;0.40;;;13.90;99.90;;;;;;6163179;23;20070;-88
2022/08/07 03:33:54;;;;;;;0.60;0.50;;;13.80;99.90;;;;;;6198568;23;20513;-87
2022/08/07 03:36:23;;;;;;;0.50;0.50;;;13.70;99.90;;;;;;6169404;23;20024;-86
2022/08/07 03:38:53;;;;;;;0.57;0.47;;;13.70;99.90;;;;;;6196083;23;20035;-88
2022/08/07 03:41:20;;;;;;;0.40;0.40;;;13.70;99.90;;;;;;6193938;23;20024;-86
2022/08/07 03:44:07;;;;;;;0.40;0.40;;;13.70;99.90;;;;;;6198212;23;20024;-85
2022/08/07 03:46:36;;;;;;;0.73;0.60;;;13.80;99.90;;;;;;6164258;23;20485;-86
2022/08/07 03:49:23;;;;;;;0.40;0.30;;;13.80;99.90;;;;;;6176375;23;20354;-90
2022/08/07 03:51:54;;;;;;;0.25;0.25;;;13.70;99.90;;;;;;6190411;23;20426;-89
2022/08/07 03:54:27;;;;;;;0.40;0.40;;;13.70;99.90;;;;;;6191314;23;20114;-89
2022/08/07 03:57:14;;;;;;;0.32;0.30;;;13.70;99.90;;;;;;6197355;23;20020;-89
2022/08/07 04:00:01;;;;;;;0.70;0.57;;;13.70;99.90;;;;;;6176437;23;20063;-89
2022/08/07 04:02:29;;;;;;;0.68;0.63;;;13.60;99.90;;;;;;6188504;23;20463;-90
2022/08/07 04:04:57;;;;;;;0.60;0.60;;;13.60;99.90;;;;;;6171843;23;20023;-87
2022/08/07 04:07:24;;;;;;;0.55;0.40;;;13.50;99.90;;;;;;6197533;23;20068;-89
2022/08/07 04:10:03;;;;;;;0.52;0.50;;;13.50;99.90;;;;;;6183428;23;20509;-91
2022/08/07 04:12:31;;;;;;;0.60;0.60;;;13.50;99.90;;;;;;6168757;23;20035;-88
2022/08/07 04:15:01;;;;;;;0.52;0.50;;;13.50;99.90;;;;;;6166286;23;20022;-85
2022/08/07 04:17:30;;;;;;;0.63;0.55;;;13.50;99.90;;;;;;6165392;23;20108;-85
2022/08/07 04:20:18;;;;;;;0.32;0.32;;;13.40;99.90;;;;;;6196759;23;20020;-87
2022/08/07 04:22:48;;;;;;;0.75;0.65;;;13.40;99.90;;;;;;6164122;23;20023;-88
2022/08/07 04:25:26;;;;;;;0.52;0.45;;;13.40;99.90;;;;;;6171545;23;20427;-90
2022/08/07 04:27:55;;;;;;;0.40;0.40;;;13.30;99.90;;;;;;6165195;23;20036;-90
2022/08/07 04:30:26;;;;;;;0.90;0.55;;;13.20;99.90;;;;;;6166047;23;20364;-88
2022/08/07 04:33:10;;;;;;;0.45;0.45;;;13.30;99.90;;;;;;6173496;23;20495;-89
2022/08/07 04:35:43;;;;;;;1.50;0.60;;;13.20;99.90;;;;;;6166149;23;20028;-93
2022/08/07 04:38:16;;;;;;;0.43;0.43;;;13.20;99.90;;;;;;6168149;23;20030;-86
2022/08/07 04:40:44;;;;;;;0.50;0.40;;;13.20;99.90;;;;;;6162492;23;20116;-88
2022/08/07 04:43:24;;;;;;;0.57;0.50;;;13.20;99.90;;;;;;6214564;23;20604;-88
2022/08/07 04:46:34;;;;;;;0.40;0.40;;;13.20;99.90;;;;;;6177909;23;20016;-88
2022/08/07 04:49:21;;;;;;;0.75;0.45;;;13.20;99.90;;;;;;6197462;23;20058;-95
2022/08/07 04:52:15;;;;;;;0.43;0.43;;;13.30;99.90;;;;;;6212549;23;20016;-91
2022/08/07 04:55:10;;;;;;;0.63;0.63;;;13.20;99.90;;;;;;6211949;23;20020;-92
2022/08/07 04:58:12;;;;;;;0.65;0.52;;;13.20;99.90;;;;;;6197269;23;20183;-89
2022/08/07 05:01:06;;;;;;;0.55;0.43;;;13.20;99.90;;;;;;6198455;23;20078;-91
2022/08/07 05:03:56;;;;;;;0.47;0.43;;;13.20;99.90;;;;;;6167388;23;20012;-87
2022/08/07 05:06:48;;;;;;;0.70;0.50;;;13.30;99.90;;;;;;6200121;23;20055;-86
2022/08/07 05:09:32;;;;;;;0.50;0.50;;;13.30;99.90;;;;;;6202891;23;20088;-87
2022/08/07 05:12:15;;;;;;;0.75;0.65;;;13.30;99.90;;;;;;6208887;23;20016;-86
2022/08/07 05:14:55;;;;;;;0.52;0.40;;;13.30;99.90;;;;;;6189456;23;20039;-86
2022/08/07 05:17:30;;;;;;;0.77;0.60;;;13.30;99.90;;;;;;6202904;23;20024;-87
2022/08/07 05:20:20;;;;;;;1.77;0.40;;;13.30;99.90;;;;;;6192706;23;20031;-93
2022/08/07 05:22:48;;;;;;;0.80;0.60;;;13.30;99.90;;;;;;6175574;23;20095;-90
2022/08/07 05:25:16;;;;;;;0.40;0.40;;;13.30;99.90;;;;;;6171296;23;20438;-90
2022/08/07 05:28:03;;;;;;;0.70;0.60;;;13.30;99.90;;;;;;6177269;23;20483;-96
2022/08/07 05:30:49;;;;;;;0.55;0.50;;;13.30;99.90;;;;;;6174515;23;20013;-92
2022/08/07 05:33:18;;;;;;;0.75;0.60;;;13.40;99.90;;;;;;6189143;23;20099;-96
2022/08/07 05:35:47;;;;;;;1.02;0.60;;;13.40;99.90;;;;;;6164514;23;20020;-93
2022/08/07 05:38:15;;;;;;;0.50;0.50;;;13.50;99.90;;;;;;6193367;23;20016;-93
2022/08/07 05:41:02;;;;;;;0.93;0.60;;;13.50;99.90;;;;;;6202696;23;20213;-91
2022/08/07 05:43:42;;;;;;;0.40;0.40;;;13.60;99.90;;;;;;6180704;23;20015;-90
2022/08/07 05:46:29;;;;;;;0.85;0.68;;;13.60;99.90;;;;;;6183733;23;20039;-92
2022/08/07 05:48:56;;;;;;;0.63;0.43;;;13.60;99.90;;;;;;6171812;23;20443;-92
2022/08/07 05:51:25;;;;;;;0.45;0.45;;;13.60;99.90;;;;;;6173025;23;20178;-91
2022/08/07 05:54:00;;;;;;;0.50;0.40;;;13.70;99.90;;;;;;6173586;23;20046;-86
2022/08/07 05:56:49;;;;;;;0.52;0.50;;;13.70;99.90;;;;;;6181295;23;20486;-87
2022/08/07 05:59:18;;;;;;;0.47;0.43;;;13.80;99.90;;;;;;6190262;23;20095;-87
2022/08/07 06:01:47;;;;;;;0.52;0.47;;;13.90;99.90;;;;;;6165701;23;20032;-87
2022/08/07 06:04:14;;;;;;;0.80;0.50;;;13.90;99.90;;;;;;6165025;23;20024;-87
2022/08/07 06:06:43;;;;;;;0.50;0.50;;;14.00;99.90;;;;;;6163953;23;20459;-87
2022/08/07 06:09:14;;;;;;;0.35;0.32;;;14.00;99.90;;;;;;6166775;23;20604;-88
2022/08/07 06:11:41;;;;;;;0.50;0.50;;;14.10;99.90;;;;;;6194809;23;20089;-86
2022/08/07 06:14:08;;;;;;;0.35;0.35;;;14.10;99.90;;;;;;6167615;23;20016;-86
2022/08/07 06:16:46;;;;;;;0.40;0.40;;;14.20;99.90;;;;;;6170576;23;20046;-87
2022/08/07 06:19:21;;;;;;;0.30;0.30;;;14.30;99.90;;;;;;6168719;23;20107;-85
2022/08/07 06:22:08;;;;;;;0.57;0.40;;;14.30;99.90;;;;;;6178004;23;20375;-89
2022/08/07 06:24:49;;;;;;;0.73;0.30;;;14.40;99.90;;;;;;6172960;23;20035;-90
2022/08/07 06:27:24;;;;;;;0.40;0.40;;;14.40;99.90;;;;;;6190820;23;20086;-86
2022/08/07 06:30:11;;;;;;;0.38;0.38;;;14.50;99.90;;;;;;6181945;23;20511;-86
2022/08/07 06:32:59;;;;;;;0.35;0.35;;;14.60;99.90;;;;;;6179759;23;20051;-89
2022/08/07 06:35:26;;;;;;;0.65;0.50;;;14.70;99.90;;;;;;6166631;23;20020;-89
2022/08/07 06:38:11;;;;;;;0.43;0.30;;;14.70;99.90;;;;;;6178428;23;20382;-88
2022/08/07 06:40:48;;;;;;;0.47;0.40;;;14.80;99.90;;;;;;6170237;23;20016;-89
2022/08/07 06:43:17;;;;;;;0.43;0.30;;;14.90;99.90;;;;;;6168626;23;20022;-88
2022/08/07 06:45:47;;;;;;;0.40;0.40;;;15.00;99.90;;;;;;6172114;23;20028;-88
2022/08/07 06:48:14;;;;;;;0.30;0.30;;;15.00;99.90;;;;;;6171120;23;20416;-89
2022/08/07 06:50:51;;;;;;;0.28;0.28;;;15.10;99.90;;;;;;6173354;23;20089;-89
2022/08/07 06:53:21;;;;;;;0.50;0.40;;;15.20;99.90;;;;;;6168639;23;20079;-89
2022/08/07 06:56:09;;;;;;;0.40;0.40;;;15.30;99.90;;;;;;6178713;23;20016;-89
2022/08/07 06:58:41;;;;;;;0.82;0.65;;;15.40;99.90;;;;;;6169458;23;20038;-87
2022/08/07 07:01:31;;;;;;;0.40;0.40;;;15.50;99.90;;;;;;6177176;23;20432;-87
2022/08/07 07:04:12;;;;;;;0.50;0.40;;;15.60;99.90;;;;;;6190696;23;20087;-88
2022/08/07 07:07:00;;;;;;;0.40;0.40;;;15.60;99.90;;;;;;6175508;23;20036;-85
2022/08/07 07:09:29;;;;;;;0.75;0.40;;;15.70;99.90;;;;;;6189528;23;20042;-86
2022/08/07 07:12:06;;;;;;;0.90;0.70;;;15.80;99.90;;;;;;6189403;23;20024;-86
2022/08/07 07:14:57;;;;;;;0.30;0.30;;;15.90;99.90;;;;;;6194663;23;20024;-87
2022/08/07 07:17:33;;;;;;;0.75;0.60;;;16.10;99.90;;;;;;6240100;23;20444;-86
2022/08/07 07:20:11;;;;;;;1.30;0.68;;;16.10;99.90;;;;;;6172188;23;20016;-88
2022/08/07 07:22:38;;;;;;;0.73;0.60;;;16.20;99.70;;;;;;6166959;23;20059;-88
2022/08/07 07:25:25;;;;;;;0.80;0.68;;;16.30;99.60;;;;;;6177778;23;20116;-87
2022/08/07 07:28:18;;;;;;;0.77;0.70;;;16.40;99.10;;;;;;6177109;23;20103;-87
2022/08/07 07:31:29;;;;;;;0.50;0.50;;;16.50;98.60;;;;;;6196952;23;20410;-86
2022/08/07 07:34:17;;;;;;;1.17;0.95;;;16.60;98.50;;;;;;6209934;23;20020;-89
2022/08/07 07:36:44;;;;;;;0.77;0.77;;;16.70;97.70;;;;;;6162629;23;20091;-88
2022/08/07 07:39:20;;;;;;;1.05;0.90;;;16.80;97.50;;;;;;6168182;23;20024;-89
2022/08/07 07:41:49;;;;;;;0.57;0.55;;;16.90;97.30;;;;;;6167097;23;20072;-89
2022/08/07 07:44:38;;;;;;;1.02;0.60;;;16.90;97.10;;;;;;6176111;23;20016;-89
2022/08/07 07:47:06;;;;;;;1.67;1.00;;;17.00;97.00;;;;;;6162520;23;20020;-90
2022/08/07 07:49:43;;;;;;;1.50;1.20;;;17.20;97.10;;;;;;6169141;23;20509;-88
2022/08/07 07:52:30;;;;;;;1.15;0.93;;;17.20;96.40;;;;;;6176915;23;20478;-88
2022/08/07 07:54:57;;;;;;;1.05;0.85;;;17.30;96.30;;;;;;6163420;23;20103;-88
2022/08/07 07:57:24;;;;;;;1.08;0.85;;;17.40;96.30;;;;;;6164323;23;20028;-89
2022/08/07 08:00:12;;;;;;;0.55;0.55;;;17.40;95.90;;;;;;6178418;23;20119;-89
2022/08/07 08:02:48;;;;;;;1.30;0.88;;;17.50;95.10;;;;;;6169867;23;20034;-88
2022/08/07 08:05:36;;;;;;;0.90;0.80;;;17.60;95.50;;;;;;6176613;23;20016;-89
2022/08/07 08:08:23;;;;;;;0.70;0.70;;;17.70;95.10;;;;;;6178267;23;20226;-89
2022/08/07 08:11:06;;;;;;;1.13;0.70;;;17.80;95.10;;;;;;6172878;23;20123;-88
2022/08/07 08:13:43;;;;;;;0.65;0.57;;;17.90;95.00;;;;;;6171743;23;20016;-88
2022/08/07 08:16:27;;;;;;;1.33;1.00;;;17.90;95.90;;;;;;6178426;23;20020;-89
2022/08/07 08:18:57;;;;;;;1.60;1.13;;;18.00;96.50;;;;;;6171887;23;20044;-88
2022/08/07 08:27:37;;;;;;;2.10;1.48;;;18.30;95.00;;;;;;6206210;23;20024;-90
2022/08/07 08:30:11;;;;;;;1.30;1.20;;;18.40;95.10;;;;;;6167492;23;20020;-88
2022/08/07 08:32:53;;;;;;;1.33;1.13;;;18.40;95.10;;;;;;6169529;23;20020;-90
2022/08/07 08:35:25;;;;;;;1.58;1.23;;;18.50;94.80;;;;;;6189357;23;20295;-92
2022/08/07 08:38:04;;;;;;;1.88;1.50;;;18.60;94.50;;;;;;6173262;23;20016;-88
2022/08/07 08:40:36;;;;;;;2.08;1.45;;;18.70;94.80;;;;;;6188924;23;20020;-91
2022/08/07 08:43:15;;;;;;;1.98;1.77;;;18.80;94.50;;;;;;6166776;23;20032;-91
2022/08/07 08:46:05;;;;;;;1.67;1.30;;;18.80;94.40;;;;;;6214870;23;20171;-89
2022/08/07 08:48:42;;;;;;;1.63;1.33;;;18.90;94.30;;;;;;6188707;23;20099;-88
2022/08/07 08:51:17;;;;;;;2.00;1.17;;;18.90;94.30;;;;;;6191294;23;20034;-88
2022/08/07 08:54:16;;;;;;;1.80;1.38;;;19.10;93.40;;;;;;6177744;23;20023;-88
2022/08/07 08:56:45;;;;;;;2.35;1.23;;;19.20;93.40;;;;;;6187429;23;20016;-88
2022/08/07 08:59:15;;;;;;;1.50;1.20;;;19.30;93.20;;;;;;6161706;23;20023;-90
2022/08/07 09:01:48;;;;;;;1.90;1.23;;;19.30;92.30;;;;;;6188241;23;20028;-88
2022/08/07 09:04:21;;;;;;;1.60;1.00;;;19.30;92.50;;;;;;6212024;23;20297;-89
2022/08/07 09:07:02;;;;;;;1.63;1.20;;;19.40;92.80;;;;;;6167706;23;20502;-89
2022/08/07 09:09:54;;;;;;;1.48;1.20;;;19.50;92.10;;;;;;6188103;23;20016;-88
2022/08/07 09:12:45;;;;;;;1.10;0.95;;;19.50;92.10;;;;;;6189275;23;20085;-88
2022/08/07 09:15:43;;;;;;;1.95;1.65;;;19.60;91.40;;;;;;6192462;23;20342;-89
2022/08/07 09:18:59;;;;;;;2.35;1.77;;;19.70;91.10;;;;;;6197457;23;20099;-87
2022/08/07 09:21:51;;;;;;;2.45;1.80;;;19.70;91.00;;;;;;6216176;23;20017;-88
2022/08/07 09:24:38;;;;;;;1.25;0.80;;;19.80;91.40;;;;;;6179289;23;20023;-88
2022/08/07 09:27:49;;;;;;;1.15;0.98;;;19.90;90.40;;;;;;6241272;23;20020;-88
2022/08/07 09:30:36;;;;;;;1.20;0.95;;;20.00;90.30;;;;;;6215996;23;20491;-88
2022/08/07 09:33:22;;;;;;;1.55;1.20;;;20.10;89.70;;;;;;6166592;23;20078;-88
2022/08/07 09:36:23;;;;;;;1.08;0.82;;;20.10;89.60;;;;;;6180362;23;20474;-90
2022/08/07 09:39:13;;;;;;;1.20;1.00;;;20.20;88.10;;;;;;6167727;23;20243;-91
2022/08/07 09:42:11;;;;;;;1.23;1.00;;;20.30;88.30;;;;;;6201087;23;20078;-90
2022/08/07 09:44:52;;;;;;;0.93;0.75;;;20.40;88.70;;;;;;6195303;23;20012;-89
2022/08/07 09:47:48;;;;;;;1.70;1.10;;;20.40;88.20;;;;;;6197853;23;20505;-91
2022/08/07 09:50:35;;;;;;;1.20;1.10;;;20.50;88.10;;;;;;6194624;23;20030;-88
2022/08/07 09:53:06;;;;;;;1.08;0.95;;;20.60;88.10;;;;;;6215009;23;20027;-90
2022/08/07 09:55:48;;;;;;;1.17;1.02;;;20.70;85.90;;;;;;6163632;23;20024;-89
2022/08/07 09:58:45;;;;;;;1.20;0.90;;;20.80;84.60;;;;;;6218625;23;20414;-88
2022/08/07 10:01:44;;;;;;;1.58;1.20;;;20.90;84.00;;;;;;6216263;23;20099;-88
2022/08/07 10:04:43;;;;;;;0.85;0.70;;;21.10;82.50;;;;;;6216649;23;20020;-90
2022/08/07 10:08:02;;;;;;;1.13;1.00;;;21.30;82.80;;;;;;6215306;23;20027;-90
2022/08/07 10:10:37;;;;;;;0.85;0.75;;;21.40;83.70;;;;;;6165401;23;20024;-89
2022/08/07 10:13:24;;;;;;;1.38;0.90;;;21.50;83.00;;;;;;6196056;23;20070;-90
2022/08/07 10:16:32;;;;;;;1.48;1.10;;;21.60;81.80;;;;;;6215870;23;20295;-88
2022/08/07 10:19:27;;;;;;;1.83;0.80;;;21.70;81.10;;;;;;6212394;23;20048;-88
2022/08/07 10:22:06;;;;;;;1.10;1.00;;;21.80;80.90;;;;;;6168241;23;20401;-89
2022/08/07 10:24:48;;;;;;;1.52;1.20;;;21.90;79.30;;;;;;6171417;23;20448;-92
2022/08/07 10:27:34;;;;;;;1.08;0.98;;;22.10;78.40;;;;;;6189236;23;20017;-89
2022/08/07 10:30:17;;;;;;;1.25;1.00;;;22.20;78.20;;;;;;6217095;23;20023;-90
2022/08/07 10:33:18;;;;;;;1.50;1.13;;;22.30;78.30;;;;;;6173961;23;20109;-91
2022/08/07 10:36:30;;;;;;;2.00;1.20;;;22.40;76.40;;;;;;6200969;23;20070;-91
2022/08/07 10:39:38;;;;;;;1.98;1.30;;;22.50;76.00;;;;;;6193752;23;20306;-90
2022/08/07 10:42:23;;;;;;;1.52;1.00;;;22.50;74.90;;;;;;6168960;23;20517;-91
2022/08/07 10:45:11;;;;;;;0.95;0.80;;;22.50;75.40;;;;;;6217170;23;20024;-92
2022/08/07 10:47:51;;;;;;;1.27;0.90;;;22.50;75.30;;;;;;6165879;23;20098;-91
2022/08/07 10:50:41;;;;;;;1.05;0.80;;;22.60;76.00;;;;;;6215565;23;20031;-86
2022/08/07 10:53:36;;;;;;;0.60;0.60;;;22.60;75.30;;;;;;6195433;23;20012;-90
2022/08/07 10:56:31;;;;;;;1.25;1.00;;;22.70;75.60;;;;;;6172454;23;20363;-89
2022/08/07 10:59:11;;;;;;;0.68;0.65;;;22.80;77.60;;;;;;6216722;23;20351;-88
2022/08/07 11:02:08;;;;;;;1.33;1.10;;;22.90;76.00;;;;;;6193721;23;20493;-88
2022/08/07 11:05:17;;;;;;;2.25;1.38;;;22.80;75.10;;;;;;6204396;23;20074;-90
2022/08/07 11:07:53;;;;;;;1.20;0.93;;;22.90;74.80;;;;;;6226630;23;20051;-88
2022/08/07 11:11:01;;;;;;;1.05;0.95;;;23.00;75.30;;;;;;6227750;23;20016;-88
2022/08/07 11:13:33;;;;;;;1.13;0.90;;;23.20;74.20;;;;;;6225921;23;20475;-90
2022/08/07 11:16:27;;;;;;;2.38;0.98;;;23.30;72.90;;;;;;6205387;23;20020;-90
2022/08/07 11:19:15;;;;;;;0.80;0.75;;;23.40;72.10;;;;;;6196743;23;20054;-89
2022/08/07 11:22:01;;;;;;;1.27;1.13;;;23.40;72.50;;;;;;6199546;23;20020;-90
2022/08/07 11:24:49;;;;;;;1.17;0.75;;;23.40;70.60;;;;;;6195263;23;20016;-90
2022/08/07 11:27:22;;;;;;;1.95;1.20;;;23.40;70.70;;;;;;6171175;23;20027;-91
2022/08/07 11:30:13;;;;;;;1.40;0.98;;;23.50;70.70;;;;;;6179205;23;20016;-88
2022/08/07 11:32:53;;;;;;;1.42;0.80;;;23.70;70.40;;;;;;6165406;23;20028;-91
2022/08/07 11:35:27;;;;;;;0.90;0.70;;;23.80;70.10;;;;;;6187377;23;20013;-89
2022/08/07 11:38:07;;;;;;;0.98;0.77;;;24.10;70.20;;;;;;6165231;23;20017;-89
2022/08/07 11:40:58;;;;;;;1.17;0.80;;;24.40;69.30;;;;;;6132685;23;20124;-90
2022/08/07 11:43:33;;;;;;;0.55;0.50;;;24.60;68.60;;;;;;6131918;23;20100;-89
2022/08/07 11:46:34;;;;;;;;;;;24.90;68.70;;;;;;6159035;23;20085;-89
2022/08/07 11:49:18;;;;;;;1.55;1.00;;;25.10;67.80;;;;;;6154451;23;19920;-88
2022/08/07 11:52:38;;;;;;;1.30;1.08;;;25.40;67.50;;;;;;6180082;23;20025;-89
2022/08/07 11:55:06;;;;;;;1.58;1.00;;;25.70;67.20;;;;;;6134304;23;20330;-89
2022/08/07 11:58:32;;;;;;;1.40;1.10;;;25.90;66.00;;;;;;6178388;23;20326;-88
2022/08/07 12:01:17;;;;;;;0.80;0.77;;;26.30;66.70;;;;;;6156702;23;20021;-89
2022/08/07 12:04:23;;;;;;;1.60;1.10;;;26.40;64.50;;;;;;6179712;23;20052;-89
2022/08/07 12:06:59;;;;;;;1.27;1.10;;;26.50;63.90;;;;;;6132769;23;20028;-89
2022/08/07 12:09:55;;;;;;;1.73;0.93;;;26.90;63.90;;;;;;6138782;23;20021;-90
2022/08/07 12:12:27;;;;;;;3.33;2.80;;;27.00;62.50;;;;;;6132122;23;20021;-89
2022/08/07 12:15:09;;;;;;;2.35;1.98;;;26.80;62.50;;;;;;6155328;23;20476;-89
2022/08/07 12:18:04;;;;;;;2.58;1.70;;;27.10;62.80;;;;;;6186789;23;20103;-89
2022/08/07 12:21:04;;;;;;;1.70;1.45;;;27.40;60.80;;;;;;6138863;23;20017;-90
2022/08/07 12:23:37;;;;;;;1.17;1.08;;;27.70;61.00;;;;;;6194210;23;20403;-88
2022/08/07 12:26:40;;;;;;;0.60;0.60;;;28.10;61.70;;;;;;6192156;23;20069;-92
2022/08/07 12:29:21;;;;;;;0.88;0.80;;;28.70;59.80;;;;;;6157537;23;20017;-91
2022/08/07 12:32:18;;;;;;;1.20;1.00;;;29.20;59.50;;;;;;6159440;23;20029;-90
2022/08/07 12:34:46;;;;;;;0.70;0.65;;;29.70;58.80;;;;;;6131515;23;20021;-90
2022/08/07 12:37:22;;;;;;;0.70;0.70;;;30.10;58.10;;;;;;6134674;23;20021;-91
2022/08/07 12:40:09;;;;;;;0.98;0.82;;;30.30;57.30;;;;;;6162762;23;20048;-91
2022/08/07 12:42:58;;;;;;;1.50;1.10;;;30.30;56.80;;;;;;6168409;23;20024;-91
2022/08/07 12:45:28;;;;;;;1.33;1.10;;;30.00;57.10;;;;;;6160796;23;20601;-91
2022/08/07 12:48:18;;;;;;;1.80;1.33;;;30.30;56.90;;;;;;6161602;23;20462;-92
2022/08/07 12:51:14;;;;;;;1.20;0.90;;;30.20;55.70;;;;;;6170110;23;20084;-90
2022/08/07 12:54:13;;;;;;;0.50;0.50;;;30.40;56.20;;;;;;6162305;23;20367;-91
2022/08/07 12:57:00;;;;;;;0.80;0.60;;;30.60;55.40;;;;;;6150715;23;20020;-92
2022/08/07 12:59:38;;;;;;;1.15;0.73;;;31.10;55.00;;;;;;6163899;23;20032;-91
2022/08/07 13:02:40;;;;;;;0.82;0.82;;;31.40;55.30;;;;;;6167015;23;20058;-89
2022/08/07 13:05:18;;;;;;;0.63;0.63;;;31.40;54.90;;;;;;6208690;23;20024;-89
2022/08/07 13:08:27;;;;;;;0.40;0.40;;;32.10;55.10;;;;;;6189621;23;20154;-90
2022/08/07 13:10:59;;;;;;;1.05;0.82;;;32.70;54.00;;;;;;6208469;23;20020;-91
2022/08/07 13:13:47;;;;;;;1.42;0.70;;;32.90;53.50;;;;;;6210804;23;20123;-91
2022/08/07 13:16:36;;;;;;;0.80;0.60;;;33.00;52.50;;;;;;6183838;23;20103;-91
2022/08/07 13:19:32;;;;;;;1.15;0.63;;;33.10;52.40;;;;;;6183811;23;20021;-90
2022/08/07 13:22:58;;;;;;;1.02;0.90;;;32.80;52.70;;;;;;6187136;23;20092;-91
2022/08/07 13:25:54;;;;;;;1.02;0.90;;;32.70;53.30;;;;;;6154497;23;20017;-90
2022/08/07 13:28:55;;;;;;;0.50;0.50;;;32.70;52.50;;;;;;6162483;23;20036;-91
2022/08/07 13:31:50;;;;;;;0.75;0.60;;;32.70;52.30;;;;;;6185996;23;20473;-90
2022/08/07 13:34:44;;;;;;;0.75;0.50;;;33.20;52.40;;;;;;6187899;23;20020;-90
2022/08/07 13:37:34;;;;;;;0.50;0.50;;;33.90;51.70;;;;;;6186252;23;20027;-91
2022/08/07 13:40:18;;;;;;;1.30;0.80;;;34.20;50.90;;;;;;6188214;23;20017;-91
2022/08/07 13:43:06;;;;;;;0.73;0.73;;;33.80;51.60;;;;;;6189548;23;20099;-89
2022/08/07 13:45:39;;;;;;;1.15;0.70;;;34.10;51.20;;;;;;6162328;23;20017;-89
2022/08/07 13:48:30;;;;;;;1.02;0.93;;;34.40;50.90;;;;;;6189497;23;20032;-88
2022/08/07 13:51:00;;;;;;;0.80;0.70;;;33.40;50.90;;;;;;6162504;23;20031;-91
2022/08/07 13:53:52;;;;;;;0.60;0.60;;;33.60;51.10;;;;;;6169485;23;20087;-91
2022/08/07 13:56:28;;;;;;;0.90;0.70;;;34.00;51.50;;;;;;6163973;23;20537;-91
2022/08/07 13:59:11;;;;;;;0.73;0.60;;;34.10;50.80;;;;;;6164536;23;20348;-91
2022/08/07 14:01:51;;;;;;;0.70;0.65;;;34.20;50.40;;;;;;6162251;23;20133;-92
2022/08/07 14:04:30;;;;;;;;;;;34.30;50.10;;;;;;6166602;23;20019;-92
2022/08/07 14:07:05;;;;;;;0.65;0.50;;;34.70;50.10;;;;;;6212859;23;19916;-92
2022/08/07 14:09:39;;;;;;;0.50;0.45;;;35.00;49.90;;;;;;6166840;23;20016;-90
2022/08/07 14:12:36;;;;;;;0.30;0.30;;;35.20;49.00;;;;;;6174125;23;20028;-91